Time;durP1;ratioP1;P1;durP2;ratioP2;P2;SDS_P1;SDS_P2;PMS_P1;PMS_P2;Temp;Humidity;BMP_temperature;BMP_pressure;BME280_temperature;BME280_humidity;BME280_pressure;Samples;Min_cycle;Max_cycle;Signal;HPM_P1;HPM_P2
2023/04/16 00:00:59;;;;;;;1.33;0.55;;;;;;;;;;4929973;29;20058;-62
2023/04/16 00:03:27;;;;;;;0.38;0.38;;;;;;;;;;4928601;29;20062;-61
2023/04/16 00:05:58;;;;;;;1.52;0.50;;;;;;;;;;4929490;28;20135;-60
2023/04/16 00:08:26;;;;;;;1.23;0.35;;;;;;;;;;4926701;29;20055;-61
2023/04/16 00:10:55;;;;;;;0.60;0.40;;;;;;;;;;4926539;29;20106;-63
2023/04/16 00:13:24;;;;;;;0.98;0.43;;;;;;;;;;4929545;29;20051;-63
2023/04/16 00:15:53;;;;;;;0.50;0.50;;;;;;;;;;4926841;28;20123;-61
2023/04/16 00:18:21;;;;;;;1.15;0.60;;;;;;;;;;4932624;29;20209;-61
2023/04/16 00:20:50;;;;;;;0.80;0.32;;;;;;;;;;4929631;29;20131;-61
2023/04/16 00:23:20;;;;;;;0.68;0.68;;;;;;;;;;4932242;29;20119;-61
2023/04/16 00:25:48;;;;;;;0.75;0.60;;;;;;;;;;4923703;28;20082;-64
2023/04/16 00:28:17;;;;;;;1.23;0.60;;;;;;;;;;4932769;29;20044;-62
2023/04/16 00:30:45;;;;;;;0.90;0.85;;;;;;;;;;4928900;29;20543;-61
2023/04/16 00:33:14;;;;;;;0.95;0.73;;;;;;;;;;4928498;29;20044;-66
2023/04/16 00:35:45;;;;;;;3.05;0.85;;;;;;;;;;4931650;28;20082;-61
2023/04/16 00:38:14;;;;;;;0.73;0.43;;;;;;;;;;4928023;29;20378;-63
2023/04/16 00:40:44;;;;;;;2.60;0.98;;;;;;;;;;4927633;29;20103;-64
2023/04/16 00:43:12;;;;;;;2.05;1.15;;;;;;;;;;4927853;29;20445;-64
2023/04/16 00:45:41;;;;;;;1.58;1.00;;;;;;;;;;4925774;29;20075;-61
2023/04/16 00:48:09;;;;;;;1.08;0.98;;;;;;;;;;4931753;29;20085;-62
2023/04/16 00:50:38;;;;;;;1.17;0.93;;;;;;;;;;4927437;29;20070;-62
2023/04/16 00:53:06;;;;;;;2.17;0.82;;;;;;;;;;4925792;29;20143;-62
2023/04/16 00:55:35;;;;;;;1.70;0.85;;;;;;;;;;4928642;29;20413;-63
2023/04/16 00:58:05;;;;;;;1.85;1.05;;;;;;;;;;4932160;29;20046;-63
2023/04/16 01:00:33;;;;;;;2.15;1.20;;;;;;;;;;4929252;29;20052;-64
2023/04/16 01:03:02;;;;;;;2.50;1.17;;;;;;;;;;4927346;29;20058;-62
2023/04/16 01:05:31;;;;;;;0.90;0.55;;;;;;;;;;4922445;28;20043;-63
2023/04/16 01:07:59;;;;;;;1.00;0.63;;;;;;;;;;4927606;29;20132;-62
2023/04/16 01:10:28;;;;;;;2.05;0.88;;;;;;;;;;4924697;29;20148;-63
2023/04/16 01:12:56;;;;;;;1.85;1.13;;;;;;;;;;4926996;29;20060;-70
2023/04/16 01:15:26;;;;;;;3.10;1.27;;;;;;;;;;4927219;28;21324;-64
2023/04/16 01:17:54;;;;;;;0.70;0.70;;;;;;;;;;4930720;29;20162;-60
2023/04/16 01:20:23;;;;;;;4.30;1.35;;;;;;;;;;4929646;28;20059;-62
2023/04/16 01:22:53;;;;;;;3.60;1.35;;;;;;;;;;4931447;29;20519;-63
2023/04/16 01:25:21;;;;;;;2.22;0.75;;;;;;;;;;4930667;29;20047;-61
2023/04/16 01:27:51;;;;;;;0.63;0.63;;;;;;;;;;4928054;29;20044;-61
2023/04/16 01:30:20;;;;;;;1.42;1.33;;;;;;;;;;4928969;29;20043;-62
2023/04/16 01:32:48;;;;;;;1.05;0.85;;;;;;;;;;4928439;29;20058;-62
2023/04/16 01:35:17;;;;;;;1.33;0.80;;;;;;;;;;4922263;29;20127;-61
2023/04/16 01:37:46;;;;;;;1.52;1.17;;;;;;;;;;4929012;28;20047;-62
2023/04/16 01:40:15;;;;;;;0.80;0.73;;;;;;;;;;4927922;29;20055;-64
2023/04/16 01:42:44;;;;;;;1.23;0.57;;;;;;;;;;4923193;29;20061;-64
2023/04/16 01:45:12;;;;;;;1.33;0.98;;;;;;;;;;4931038;29;20039;-61
2023/04/16 01:47:41;;;;;;;0.65;0.65;;;;;;;;;;4926080;28;20412;-61
2023/04/16 01:50:10;;;;;;;0.93;0.68;;;;;;;;;;4929729;29;20040;-61
2023/04/16 01:52:38;;;;;;;1.77;1.15;;;;;;;;;;4923324;29;20092;-63
2023/04/16 01:55:07;;;;;;;0.95;0.50;;;;;;;;;;4932348;29;20073;-61
2023/04/16 01:57:37;;;;;;;0.45;0.32;;;;;;;;;;4928990;28;20079;-60
2023/04/16 02:00:06;;;;;;;2.35;0.35;;;;;;;;;;4930260;29;20083;-62
2023/04/16 02:02:35;;;;;;;1.05;0.63;;;;;;;;;;4926785;29;20052;-64
2023/04/16 02:05:03;;;;;;;0.50;0.50;;;;;;;;;;4930298;29;20489;-62
2023/04/16 02:07:32;;;;;;;0.98;0.47;;;;;;;;;;4926366;28;20044;-62
2023/04/16 02:10:00;;;;;;;2.28;0.65;;;;;;;;;;4931547;29;20424;-64
2023/04/16 02:12:28;;;;;;;0.68;0.63;;;;;;;;;;4925576;29;20561;-64
2023/04/16 02:14:58;;;;;;;0.43;0.38;;;;;;;;;;4932574;28;20469;-63
2023/04/16 02:17:26;;;;;;;0.20;0.20;;;;;;;;;;4929845;28;20079;-60
2023/04/16 02:19:55;;;;;;;0.45;0.30;;;;;;;;;;4936682;29;20062;-67
2023/04/16 02:22:23;;;;;;;0.38;0.30;;;;;;;;;;4924375;29;20150;-64
2023/04/16 02:24:52;;;;;;;1.65;0.30;;;;;;;;;;4931970;29;20497;-61
2023/04/16 02:27:20;;;;;;;1.75;0.30;;;;;;;;;;4930864;28;20051;-63
2023/04/16 02:29:49;;;;;;;0.52;0.45;;;;;;;;;;4933517;28;20083;-65
2023/04/16 02:32:18;;;;;;;0.63;0.63;;;;;;;;;;4933016;29;20091;-67
2023/04/16 02:34:47;;;;;;;0.73;0.40;;;;;;;;;;4930939;29;20052;-61
2023/04/16 02:37:15;;;;;;;0.90;0.60;;;;;;;;;;4929514;28;20048;-61
2023/04/16 02:39:44;;;;;;;1.50;0.52;;;;;;;;;;4937069;29;20056;-62
2023/04/16 02:42:12;;;;;;;0.20;0.20;;;;;;;;;;4928213;29;20048;-63
2023/04/16 02:44:40;;;;;;;0.88;0.45;;;;;;;;;;4933597;29;20052;-63
2023/04/16 02:47:09;;;;;;;1.20;0.40;;;;;;;;;;4934303;28;20074;-62
2023/04/16 02:49:38;;;;;;;1.05;0.70;;;;;;;;;;4930668;29;20075;-62
2023/04/16 02:52:07;;;;;;;0.75;0.73;;;;;;;;;;4932045;29;20103;-61
2023/04/16 02:54:35;;;;;;;2.22;0.60;;;;;;;;;;4932525;29;20071;-61
2023/04/16 02:57:04;;;;;;;0.90;0.90;;;;;;;;;;4933654;28;20143;-61
2023/04/16 02:59:33;;;;;;;1.90;0.85;;;;;;;;;;4930392;29;20560;-61
2023/04/16 03:02:01;;;;;;;0.90;0.70;;;;;;;;;;4930579;29;20055;-61
2023/04/16 03:04:30;;;;;;;0.40;0.40;;;;;;;;;;4930155;29;20056;-61
2023/04/16 03:07:00;;;;;;;1.75;0.70;;;;;;;;;;4931326;28;20056;-62
2023/04/16 03:09:28;;;;;;;1.13;0.88;;;;;;;;;;4931476;29;20504;-61
2023/04/16 03:11:56;;;;;;;2.72;0.60;;;;;;;;;;4935447;29;20058;-61
2023/04/16 03:14:25;;;;;;;1.52;0.88;;;;;;;;;;4927050;29;20186;-64
2023/04/16 03:16:53;;;;;;;2.17;0.70;;;;;;;;;;4934665;28;20051;-65
2023/04/16 03:19:21;;;;;;;0.68;0.63;;;;;;;;;;4932351;29;20135;-62
2023/04/16 03:21:50;;;;;;;1.05;0.73;;;;;;;;;;4932890;29;20079;-62
2023/04/16 03:24:20;;;;;;;1.17;1.02;;;;;;;;;;4932436;29;20071;-63
2023/04/16 03:26:48;;;;;;;0.95;0.65;;;;;;;;;;4934149;28;20134;-63
2023/04/16 03:29:16;;;;;;;0.30;0.30;;;;;;;;;;4927398;29;20039;-60
2023/04/16 03:31:45;;;;;;;2.63;1.05;;;;;;;;;;4933327;29;20447;-62
2023/04/16 03:34:13;;;;;;;1.85;0.80;;;;;;;;;;4926771;29;20054;-64
2023/04/16 03:36:41;;;;;;;1.42;0.88;;;;;;;;;;4925914;28;20051;-59
2023/04/16 03:39:10;;;;;;;2.03;0.60;;;;;;;;;;4929670;29;20517;-58
2023/04/16 03:41:40;;;;;;;0.60;0.43;;;;;;;;;;4926245;29;20089;-61
2023/04/16 03:44:08;;;;;;;1.23;1.08;;;;;;;;;;4927833;29;20054;-58
2023/04/16 03:46:36;;;;;;;0.68;0.63;;;;;;;;;;4929370;28;20058;-60
2023/04/16 03:49:05;;;;;;;3.25;0.73;;;;;;;;;;4931358;29;20044;-62
2023/04/16 03:51:33;;;;;;;0.75;0.30;;;;;;;;;;4938886;29;20504;-63
2023/04/16 03:54:02;;;;;;;0.82;0.82;;;;;;;;;;4929589;29;20048;-61
2023/04/16 03:56:30;;;;;;;1.10;1.00;;;;;;;;;;4940459;28;20070;-61
2023/04/16 03:59:00;;;;;;;0.65;0.47;;;;;;;;;;4931015;29;20501;-59
2023/04/16 04:01:28;;;;;;;1.98;0.70;;;;;;;;;;4941753;29;20126;-62
2023/04/16 04:03:57;;;;;;;0.10;0.10;;;;;;;;;;4935400;29;20060;-60
2023/04/16 04:06:26;;;;;;;0.52;0.52;;;;;;;;;;4942470;28;20571;-60
2023/04/16 04:08:54;;;;;;;3.05;0.98;;;;;;;;;;4933930;29;20048;-60
2023/04/16 04:11:23;;;;;;;1.10;0.82;;;;;;;;;;4950617;29;20126;-59
2023/04/16 04:13:51;;;;;;;1.45;0.40;;;;;;;;;;4936907;29;20142;-59
2023/04/16 04:16:21;;;;;;;1.20;1.10;;;;;;;;;;4931154;28;20130;-60
2023/04/16 04:18:49;;;;;;;1.05;0.73;;;;;;;;;;4932420;29;20079;-59
2023/04/16 04:21:17;;;;;;;0.82;0.55;;;;;;;;;;4930010;29;20051;-60
2023/04/16 04:23:46;;;;;;;1.25;0.82;;;;;;;;;;4929626;29;20131;-60
2023/04/16 04:26:14;;;;;;;2.28;0.20;;;;;;;;;;4930917;29;20047;-60
2023/04/16 04:28:43;;;;;;;1.13;0.93;;;;;;;;;;4928858;29;20051;-59
2023/04/16 04:31:11;;;;;;;2.30;1.25;;;;;;;;;;4932943;29;20549;-60
2023/04/16 04:33:41;;;;;;;1.00;0.77;;;;;;;;;;4928829;29;20055;-59
2023/04/16 04:36:09;;;;;;;1.05;0.70;;;;;;;;;;4931937;28;20051;-60
2023/04/16 04:38:37;;;;;;;0.65;0.65;;;;;;;;;;4931177;29;20420;-60
2023/04/16 04:41:06;;;;;;;1.80;1.00;;;;;;;;;;4931800;29;20087;-61
2023/04/16 04:43:34;;;;;;;1.30;0.70;;;;;;;;;;4926502;29;20170;-64
2023/04/16 04:46:02;;;;;;;1.25;0.70;;;;;;;;;;4936327;28;20067;-61
2023/04/16 04:48:31;;;;;;;0.85;0.52;;;;;;;;;;4940377;29;20127;-59
2023/04/16 04:51:03;;;;;;;1.67;0.85;;;;;;;;;;4939532;29;20048;-59
2023/04/16 04:53:32;;;;;;;0.50;0.30;;;;;;;;;;4933244;29;20048;-60
2023/04/16 04:56:01;;;;;;;1.00;0.77;;;;;;;;;;4929451;28;20048;-62
2023/04/16 04:58:40;;;;;;;0.75;0.40;;;;;;;;;;4925992;29;20410;-63
2023/04/16 05:01:08;;;;;;;1.38;0.95;;;;;;;;;;4930820;29;20055;-60
2023/04/16 05:03:37;;;;;;;2.50;0.98;;;;;;;;;;4940885;28;20138;-68
2023/04/16 05:06:07;;;;;;;1.08;0.55;;;;;;;;;;4942782;28;20074;-61
2023/04/16 05:08:36;;;;;;;1.85;0.60;;;;;;;;;;4926319;29;20391;-60
2023/04/16 05:11:05;;;;;;;2.55;1.45;;;;;;;;;;4929394;29;20052;-61
2023/04/16 05:13:33;;;;;;;1.05;0.52;;;;;;;;;;4937802;29;20047;-62
2023/04/16 05:16:02;;;;;;;1.67;0.65;;;;;;;;;;4937309;28;20047;-61
2023/04/16 05:18:31;;;;;;;1.48;0.82;;;;;;;;;;4935336;29;20154;-61
2023/04/16 05:20:59;;;;;;;0.65;0.35;;;;;;;;;;4929190;29;20048;-65
2023/04/16 05:23:29;;;;;;;1.48;0.85;;;;;;;;;;4932387;29;20052;-62
2023/04/16 05:25:58;;;;;;;3.42;0.95;;;;;;;;;;4934261;28;20051;-67
2023/04/16 05:28:26;;;;;;;1.08;0.60;;;;;;;;;;4936141;28;20051;-61
2023/04/16 05:30:54;;;;;;;1.08;0.65;;;;;;;;;;4926716;29;20050;-67
2023/04/16 05:33:23;;;;;;;0.80;0.68;;;;;;;;;;4928523;29;20129;-61
2023/04/16 05:35:51;;;;;;;1.55;0.50;;;;;;;;;;4929135;29;20063;-61
2023/04/16 05:38:19;;;;;;;1.95;1.08;;;;;;;;;;4929913;29;20127;-63
2023/04/16 05:40:49;;;;;;;1.30;1.10;;;;;;;;;;4926125;29;20060;-63
2023/04/16 05:43:18;;;;;;;1.55;0.70;;;;;;;;;;4926473;29;20068;-60
2023/04/16 05:45:46;;;;;;;0.77;0.60;;;;;;;;;;4927529;28;20103;-64
2023/04/16 05:48:14;;;;;;;0.63;0.55;;;;;;;;;;4929785;29;20458;-61
2023/04/16 05:50:43;;;;;;;0.45;0.25;;;;;;;;;;4930014;29;20353;-61
2023/04/16 05:53:12;;;;;;;0.47;0.47;;;;;;;;;;4929959;29;20058;-61
2023/04/16 05:55:41;;;;;;;0.50;0.50;;;;;;;;;;4926783;28;20414;-61
2023/04/16 05:58:10;;;;;;;0.55;0.55;;;;;;;;;;4930532;29;20066;-61
2023/04/16 06:00:40;;;;;;;0.20;0.20;;;;;;;;;;4932182;29;20130;-61
2023/04/16 06:03:08;;;;;;;0.93;0.50;;;;;;;;;;4925283;29;20062;-64
2023/04/16 06:05:37;;;;;;;1.63;1.25;;;;;;;;;;4928704;28;20103;-66
2023/04/16 06:08:05;;;;;;;8.77;1.15;;;;;;;;;;4919399;29;20059;-68
2023/04/16 06:10:34;;;;;;;1.15;0.85;;;;;;;;;;4931894;29;20065;-63
2023/04/16 06:13:02;;;;;;;1.45;0.85;;;;;;;;;;4935755;29;20056;-62
2023/04/16 06:15:32;;;;;;;1.63;0.68;;;;;;;;;;4931358;28;20054;-62
2023/04/16 06:18:00;;;;;;;0.50;0.50;;;;;;;;;;4932754;29;20062;-61
2023/04/16 06:20:28;;;;;;;0.90;0.57;;;;;;;;;;4940050;29;20079;-63
2023/04/16 06:22:57;;;;;;;0.70;0.52;;;;;;;;;;4938912;29;20083;-63
2023/04/16 06:25:25;;;;;;;0.60;0.60;;;;;;;;;;4940162;28;20496;-64
2023/04/16 06:27:54;;;;;;;2.08;0.30;;;;;;;;;;4933756;29;20504;-63
2023/04/16 06:30:22;;;;;;;0.60;0.52;;;;;;;;;;4934256;29;20135;-62
2023/04/16 06:32:52;;;;;;;0.65;0.32;;;;;;;;;;4939157;29;20177;-62
2023/04/16 06:35:21;;;;;;;0.20;0.20;;;;;;;;;;4928180;28;20060;-67
2023/04/16 06:37:49;;;;;;;0.63;0.47;;;;;;;;;;4927645;29;20058;-72
2023/04/16 06:40:18;;;;;;;0.95;0.30;;;;;;;;;;4930427;29;20064;-61
2023/04/16 06:42:46;;;;;;;0.20;0.20;;;;;;;;;;4931213;29;20270;-66
2023/04/16 06:45:14;;;;;;;0.20;0.20;;;;;;;;;;4930668;29;20047;-62
2023/04/16 06:47:43;;;;;;;0.45;0.45;;;;;;;;;;4926101;28;20469;-61
2023/04/16 06:50:13;;;;;;;0.70;0.70;;;;;;;;;;4928744;29;20151;-69
2023/04/16 06:52:41;;;;;;;0.35;0.35;;;;;;;;;;4930506;29;20140;-63
2023/04/16 06:55:10;;;;;;;0.30;0.30;;;;;;;;;;4927956;29;20056;-64
2023/04/16 06:57:39;;;;;;;0.20;0.20;;;;;;;;;;4927303;28;20103;-63
2023/04/16 07:00:08;;;;;;;0.35;0.22;;;;;;;;;;4923695;29;20062;-64
2023/04/16 07:02:37;;;;;;;1.40;0.17;;;;;;;;;;4930973;29;20148;-61
2023/04/16 07:05:05;;;;;;;0.20;0.20;;;;;;;;;;4923190;29;20043;-64
2023/04/16 07:07:36;;;;;;;0.70;0.30;;;;;;;;;;4930013;28;20139;-62
2023/04/16 07:10:05;;;;;;;1.75;0.20;;;;;;;;;;4929158;29;20143;-63
2023/04/16 07:12:33;;;;;;;0.43;0.30;;;;;;;;;;4921937;29;20131;-68
2023/04/16 07:15:02;;;;;;;0.10;0.10;;;;;;;;;;4918349;29;20390;-61
2023/04/16 07:17:30;;;;;;;0.10;0.10;;;;;;;;;;4928512;28;20345;-62
2023/04/16 07:19:59;;;;;;;0.50;0.35;;;;;;;;;;4928454;29;20401;-63
2023/04/16 07:22:27;;;;;;;0.13;0.13;;;;;;;;;;4929483;29;20485;-68
2023/04/16 07:24:57;;;;;;;0.10;0.10;;;;;;;;;;4928308;29;20074;-67
2023/04/16 07:27:26;;;;;;;0.10;0.10;;;;;;;;;;4929017;29;20138;-62
2023/04/16 07:29:54;;;;;;;0.28;0.10;;;;;;;;;;4928621;29;20369;-64
2023/04/16 07:32:23;;;;;;;0.17;0.17;;;;;;;;;;4927870;29;20066;-64
2023/04/16 07:34:51;;;;;;;0.17;0.17;;;;;;;;;;4931914;29;20126;-62
2023/04/16 07:37:20;;;;;;;0.10;0.10;;;;;;;;;;4919191;29;20055;-64
2023/04/16 07:39:48;;;;;;;0.10;0.10;;;;;;;;;;4927391;29;20060;-70
2023/04/16 07:42:18;;;;;;;0.10;0.10;;;;;;;;;;4927676;29;20051;-62
2023/04/16 07:44:46;;;;;;;0.10;0.10;;;;;;;;;;4931587;29;20099;-65
2023/04/16 07:47:15;;;;;;;0.15;0.15;;;;;;;;;;4929785;28;20170;-62
2023/04/16 07:49:43;;;;;;;0.20;0.20;;;;;;;;;;4930396;29;20048;-61
2023/04/16 07:52:11;;;;;;;0.73;0.35;;;;;;;;;;4927968;29;20051;-62
2023/04/16 07:54:40;;;;;;;0.40;0.40;;;;;;;;;;4921236;29;20530;-62
2023/04/16 07:57:08;;;;;;;0.17;0.17;;;;;;;;;;4928309;28;20672;-63
2023/04/16 07:59:38;;;;;;;0.30;0.30;;;;;;;;;;4926670;29;20589;-63
2023/04/16 08:02:07;;;;;;;0.20;0.20;;;;;;;;;;4924505;29;20059;-61
2023/04/16 08:04:36;;;;;;;0.20;0.20;;;;;;;;;;4921812;29;20047;-63
2023/04/16 08:07:04;;;;;;;0.00;0.00;;;;;;;;;;4911924;29;20411;-63
2023/04/16 08:09:33;;;;;;;0.10;0.10;;;;;;;;;;4920388;29;20067;-63
2023/04/16 08:12:02;;;;;;;0.45;0.43;;;;;;;;;;4927286;29;20150;-61
2023/04/16 08:14:30;;;;;;;0.10;0.10;;;;;;;;;;4921996;29;20111;-61
2023/04/16 08:17:00;;;;;;;0.40;0.22;;;;;;;;;;4921175;29;20063;-64
2023/04/16 08:19:29;;;;;;;0.75;0.20;;;;;;;;;;4921085;29;20147;-63
2023/04/16 08:21:57;;;;;;;0.10;0.10;;;;;;;;;;4923738;29;20083;-65
2023/04/16 08:24:26;;;;;;;0.10;0.10;;;;;;;;;;4921469;29;20091;-62
2023/04/16 08:26:54;;;;;;;0.38;0.30;;;;;;;;;;4923809;28;20043;-62
2023/04/16 08:29:38;;;;;;;0.13;0.13;;;;;;;;;;4922785;29;20498;-63
2023/04/16 08:32:09;;;;;;;0.10;0.10;;;;;;;;;;4926079;29;20048;-63
2023/04/16 08:34:37;;;;;;;0.80;0.30;;;;;;;;;;4927949;29;20083;-65
2023/04/16 08:37:05;;;;;;;0.32;0.32;;;;;;;;;;4930614;28;20048;-63
2023/04/16 08:39:34;;;;;;;0.65;0.63;;;;;;;;;;4932318;29;20143;-61
2023/04/16 08:42:05;;;;;;;0.17;0.10;;;;;;;;;;4933953;29;20059;-64
2023/04/16 08:44:35;;;;;;;0.10;0.10;;;;;;;;;;4924541;29;20058;-63
2023/04/16 08:47:04;;;;;;;0.40;0.40;;;;;;;;;;4930362;28;20450;-62
2023/04/16 08:49:36;;;;;;;0.30;0.30;;;;;;;;;;4926040;29;20436;-62
2023/04/16 08:52:06;;;;;;;0.15;0.15;;;;;;;;;;4927909;29;20048;-64
2023/04/16 08:54:39;;;;;;;0.10;0.10;;;;;;;;;;4924477;29;20052;-62
2023/04/16 08:57:11;;;;;;;0.25;0.25;;;;;;;;;;4930953;28;20081;-62
2023/04/16 08:59:40;;;;;;;0.28;0.15;;;;;;;;;;4932377;29;20052;-63
2023/04/16 09:02:10;;;;;;;0.00;0.00;;;;;;;;;;4924892;29;20132;-68
2023/04/16 09:04:40;;;;;;;0.10;0.10;;;;;;;;;;4930543;29;20052;-64
2023/04/16 09:07:09;;;;;;;0.30;0.30;;;;;;;;;;4922550;29;20051;-61
2023/04/16 09:09:39;;;;;;;0.10;0.10;;;;;;;;;;4928352;29;20048;-69
2023/04/16 09:12:09;;;;;;;0.70;0.30;;;;;;;;;;4919478;29;20080;-61
2023/04/16 09:14:40;;;;;;;0.10;0.10;;;;;;;;;;4927332;29;20131;-61
2023/04/16 09:17:09;;;;;;;0.10;0.10;;;;;;;;;;4926041;28;20462;-61
2023/04/16 09:19:39;;;;;;;0.10;0.10;;;;;;;;;;4929246;29;20044;-60
2023/04/16 09:22:08;;;;;;;0.10;0.10;;;;;;;;;;4929839;29;20134;-62
2023/04/16 09:24:37;;;;;;;0.10;0.10;;;;;;;;;;4923726;29;20059;-63
2023/04/16 09:27:06;;;;;;;0.10;0.10;;;;;;;;;;4923975;29;20134;-61
2023/04/16 09:29:35;;;;;;;0.10;0.10;;;;;;;;;;4927345;29;20139;-60
2023/04/16 09:32:04;;;;;;;0.40;0.40;;;;;;;;;;4927057;29;20054;-63
2023/04/16 09:34:33;;;;;;;0.13;0.13;;;;;;;;;;4924994;29;20207;-61
2023/04/16 09:37:19;;;;;;;2.10;0.20;;;;;;;;;;4927048;28;20044;-63
2023/04/16 09:39:57;;;;;;;0.08;0.08;;;;;;;;;;4930685;29;20056;-63
2023/04/16 09:42:27;;;;;;;0.10;0.10;;;;;;;;;;4927175;29;20085;-72
2023/04/16 09:44:55;;;;;;;0.10;0.10;;;;;;;;;;4924297;28;20055;-61
2023/04/16 09:47:38;;;;;;;0.08;0.08;;;;;;;;;;4924175;28;20150;-61
2023/04/16 09:50:08;;;;;;;0.28;0.10;;;;;;;;;;4931725;29;20044;-69
2023/04/16 09:52:39;;;;;;;0.73;0.30;;;;;;;;;;4922177;29;20131;-62
2023/04/16 09:55:09;;;;;;;0.15;0.15;;;;;;;;;;4919125;29;20092;-64
2023/04/16 09:57:38;;;;;;;0.10;0.10;;;;;;;;;;4927727;28;20061;-63
2023/04/16 10:00:09;;;;;;;0.10;0.10;;;;;;;;;;4929117;29;20076;-63
2023/04/16 10:02:40;;;;;;;0.38;0.38;;;;;;;;;;4928456;29;20083;-63
2023/04/16 10:05:10;;;;;;;0.10;0.10;;;;;;;;;;4930437;29;20047;-61
2023/04/16 10:07:38;;;;;;;0.10;0.10;;;;;;;;;;4926572;28;20127;-65
2023/04/16 10:10:07;;;;;;;0.10;0.10;;;;;;;;;;4930330;29;20087;-66
2023/04/16 10:12:37;;;;;;;0.55;0.20;;;;;;;;;;4929816;29;20134;-63
2023/04/16 10:15:06;;;;;;;0.00;0.00;;;;;;;;;;4927707;29;20074;-64
2023/04/16 10:17:35;;;;;;;0.30;0.25;;;;;;;;;;4927192;28;20535;-66
2023/04/16 10:20:03;;;;;;;0.13;0.10;;;;;;;;;;4926260;29;20138;-67
2023/04/16 10:22:32;;;;;;;0.75;0.20;;;;;;;;;;4927247;29;20074;-65
2023/04/16 10:25:01;;;;;;;0.10;0.10;;;;;;;;;;4929010;29;20090;-64
2023/04/16 10:27:29;;;;;;;0.10;0.10;;;;;;;;;;4923436;28;20458;-62
2023/04/16 10:29:59;;;;;;;0.55;0.55;;;;;;;;;;4934185;29;20075;-62
2023/04/16 10:32:29;;;;;;;0.08;0.08;;;;;;;;;;4925820;29;20073;-60
2023/04/16 10:34:58;;;;;;;0.15;0.15;;;;;;;;;;4922231;29;20048;-61
2023/04/16 10:37:30;;;;;;;0.10;0.10;;;;;;;;;;4927378;28;20686;-63
2023/04/16 10:39:59;;;;;;;0.10;0.10;;;;;;;;;;4924669;29;21406;-61
2023/04/16 10:42:28;;;;;;;0.20;0.20;;;;;;;;;;4918781;29;20091;-61
2023/04/16 10:45:01;;;;;;;0.13;0.13;;;;;;;;;;4928297;29;20059;-64
2023/04/16 10:47:30;;;;;;;0.20;0.20;;;;;;;;;;4921508;28;20055;-70
2023/04/16 10:49:58;;;;;;;0.85;0.45;;;;;;;;;;4928375;29;20412;-62
2023/04/16 10:52:30;;;;;;;0.10;0.10;;;;;;;;;;4927338;29;20134;-61
2023/04/16 10:55:00;;;;;;;0.28;0.20;;;;;;;;;;4917613;29;20048;-61
2023/04/16 10:57:29;;;;;;;0.30;0.20;;;;;;;;;;4921501;29;20068;-63
2023/04/16 10:59:58;;;;;;;0.10;0.10;;;;;;;;;;4929764;29;20546;-60
2023/04/16 11:02:30;;;;;;;0.20;0.20;;;;;;;;;;4933616;29;20420;-61
2023/04/16 11:04:58;;;;;;;0.35;0.30;;;;;;;;;;4935114;29;20449;-60
2023/04/16 11:07:33;;;;;;;0.20;0.20;;;;;;;;;;4925064;28;20074;-64
2023/04/16 11:10:04;;;;;;;0.10;0.10;;;;;;;;;;4933650;29;20079;-60
2023/04/16 11:12:34;;;;;;;0.20;0.20;;;;;;;;;;4925803;29;20379;-62
2023/04/16 11:15:04;;;;;;;0.10;0.10;;;;;;;;;;4926421;29;20047;-61
2023/04/16 11:17:37;;;;;;;0.10;0.10;;;;;;;;;;4931622;28;20051;-60
2023/04/16 11:20:06;;;;;;;0.20;0.20;;;;;;;;;;4933533;29;20636;-63
2023/04/16 11:22:47;;;;;;;0.10;0.10;;;;;;;;;;4928202;29;20067;-69
2023/04/16 11:25:20;;;;;;;0.20;0.10;;;;;;;;;;4925033;29;20966;-62
2023/04/16 11:27:49;;;;;;;0.20;0.20;;;;;;;;;;4931953;28;20074;-63
2023/04/16 11:30:17;;;;;;;0.20;0.20;;;;;;;;;;4921370;29;20047;-63
2023/04/16 11:32:47;;;;;;;0.20;0.20;;;;;;;;;;4928365;29;20101;-60
2023/04/16 11:35:17;;;;;;;0.03;0.03;;;;;;;;;;4925649;29;20056;-62
2023/04/16 11:37:47;;;;;;;0.20;0.20;;;;;;;;;;4921040;28;20433;-60
2023/04/16 11:40:15;;;;;;;1.55;0.10;;;;;;;;;;4927301;29;20095;-64
2023/04/16 11:42:44;;;;;;;0.38;0.10;;;;;;;;;;4931441;29;20052;-62
2023/04/16 11:45:13;;;;;;;1.30;0.20;;;;;;;;;;4930951;29;20074;-60
2023/04/16 11:47:45;;;;;;;0.10;0.10;;;;;;;;;;4930609;28;20107;-61
2023/04/16 11:50:20;;;;;;;0.10;0.10;;;;;;;;;;4928822;29;20412;-61
2023/04/16 11:52:49;;;;;;;0.10;0.10;;;;;;;;;;4927687;29;20126;-61
2023/04/16 11:55:17;;;;;;;0.52;0.25;;;;;;;;;;4929939;29;20063;-64
2023/04/16 11:57:46;;;;;;;0.20;0.20;;;;;;;;;;4927552;29;20052;-61
2023/04/16 12:00:15;;;;;;;0.10;0.10;;;;;;;;;;4928541;29;20134;-61
2023/04/16 12:02:44;;;;;;;0.10;0.10;;;;;;;;;;4928577;29;20044;-61
2023/04/16 12:05:31;;;;;;;0.20;0.20;;;;;;;;;;4919532;29;20683;-60
2023/04/16 12:08:00;;;;;;;0.28;0.20;;;;;;;;;;4927262;29;20457;-60
2023/04/16 12:10:29;;;;;;;0.20;0.20;;;;;;;;;;4926337;29;20051;-60
2023/04/16 12:13:09;;;;;;;0.43;0.35;;;;;;;;;;4930912;29;20176;-61
2023/04/16 12:15:45;;;;;;;0.10;0.10;;;;;;;;;;4922464;28;20512;-60
2023/04/16 12:18:14;;;;;;;0.10;0.10;;;;;;;;;;4928452;29;20553;-60
2023/04/16 12:20:45;;;;;;;0.10;0.10;;;;;;;;;;4921955;29;20055;-60
2023/04/16 12:23:23;;;;;;;0.10;0.10;;;;;;;;;;4928092;29;20048;-61
2023/04/16 12:25:51;;;;;;;0.10;0.10;;;;;;;;;;4931298;28;20523;-60
2023/04/16 12:28:30;;;;;;;0.10;0.10;;;;;;;;;;4926881;29;20485;-61
2023/04/16 12:30:58;;;;;;;0.10;0.10;;;;;;;;;;4928551;29;20043;-61
2023/04/16 12:33:27;;;;;;;0.32;0.28;;;;;;;;;;4932824;28;20557;-61
2023/04/16 12:35:57;;;;;;;0.22;0.22;;;;;;;;;;4927648;29;20420;-60
2023/04/16 12:38:26;;;;;;;0.15;0.15;;;;;;;;;;4927581;29;20058;-60
2023/04/16 12:40:56;;;;;;;0.20;0.20;;;;;;;;;;4928969;29;20051;-60
2023/04/16 12:43:25;;;;;;;0.47;0.22;;;;;;;;;;4932439;29;20501;-62
2023/04/16 12:45:53;;;;;;;0.13;0.13;;;;;;;;;;4932449;28;20465;-61
2023/04/16 12:48:22;;;;;;;0.38;0.38;;;;;;;;;;4931276;29;20064;-60
2023/04/16 12:50:50;;;;;;;0.20;0.20;;;;;;;;;;4926570;29;20048;-61
2023/04/16 12:53:20;;;;;;;0.17;0.17;;;;;;;;;;4925381;29;20040;-61
2023/04/16 12:55:49;;;;;;;0.20;0.20;;;;;;;;;;4928197;29;20130;-61
2023/04/16 12:58:17;;;;;;;0.20;0.20;;;;;;;;;;4936700;29;20051;-60
2023/04/16 13:00:46;;;;;;;1.42;0.38;;;;;;;;;;4930500;29;20147;-60
2023/04/16 13:03:14;;;;;;;0.22;0.20;;;;;;;;;;4927942;29;20051;-60
2023/04/16 13:05:43;;;;;;;0.30;0.20;;;;;;;;;;4930031;28;20390;-60
2023/04/16 13:08:12;;;;;;;0.17;0.17;;;;;;;;;;4931056;29;20055;-62
2023/04/16 13:10:41;;;;;;;0.20;0.15;;;;;;;;;;4924039;29;20074;-62
2023/04/16 13:13:10;;;;;;;0.10;0.10;;;;;;;;;;4930782;29;20056;-61
2023/04/16 13:15:38;;;;;;;2.30;0.50;;;;;;;;;;4923991;28;20057;-61
2023/04/16 13:18:06;;;;;;;0.10;0.10;;;;;;;;;;4931878;29;20075;-61
2023/04/16 13:20:35;;;;;;;0.50;0.25;;;;;;;;;;4930619;29;20094;-62
2023/04/16 13:23:04;;;;;;;0.10;0.10;;;;;;;;;;4932814;29;20541;-61
2023/04/16 13:25:32;;;;;;;0.20;0.20;;;;;;;;;;4926883;28;20087;-63
2023/04/16 13:28:02;;;;;;;0.20;0.20;;;;;;;;;;4924966;29;20130;-61
2023/04/16 13:30:32;;;;;;;0.75;0.20;;;;;;;;;;4929120;29;20083;-61
2023/04/16 13:33:00;;;;;;;0.55;0.15;;;;;;;;;;4932234;29;20110;-61
2023/04/16 13:35:30;;;;;;;0.35;0.20;;;;;;;;;;4926723;28;20051;-61
2023/04/16 13:37:58;;;;;;;0.90;0.20;;;;;;;;;;4931306;29;20122;-61
2023/04/16 13:40:26;;;;;;;0.10;0.10;;;;;;;;;;4923391;29;20347;-60
2023/04/16 13:42:55;;;;;;;0.10;0.10;;;;;;;;;;4926733;29;20083;-61
2023/04/16 13:45:26;;;;;;;0.10;0.10;;;;;;;;;;4922082;28;20047;-61
2023/04/16 13:47:55;;;;;;;0.10;0.10;;;;;;;;;;4930709;29;20052;-62
2023/04/16 13:50:23;;;;;;;1.25;0.20;;;;;;;;;;4926088;29;20046;-61
2023/04/16 13:52:52;;;;;;;0.30;0.20;;;;;;;;;;4921989;28;20138;-63
2023/04/16 13:55:20;;;;;;;0.17;0.17;;;;;;;;;;4924359;29;20497;-61
2023/04/16 13:57:51;;;;;;;0.82;0.17;;;;;;;;;;4929147;28;20134;-61
2023/04/16 14:00:19;;;;;;;0.10;0.10;;;;;;;;;;4923295;29;20142;-60
2023/04/16 14:02:49;;;;;;;0.10;0.10;;;;;;;;;;4929265;29;20063;-61
2023/04/16 14:05:19;;;;;;;0.60;0.30;;;;;;;;;;4928122;29;20083;-62
2023/04/16 14:07:47;;;;;;;0.30;0.30;;;;;;;;;;4915338;29;20085;-61
2023/04/16 14:10:16;;;;;;;0.10;0.10;;;;;;;;;;4923498;29;20059;-62
2023/04/16 14:12:45;;;;;;;0.22;0.10;;;;;;;;;;4924537;29;20064;-61
2023/04/16 14:15:14;;;;;;;0.20;0.20;;;;;;;;;;4927311;29;20075;-59
2023/04/16 14:17:43;;;;;;;0.30;0.30;;;;;;;;;;4918856;28;20059;-62
2023/04/16 14:20:14;;;;;;;0.10;0.10;;;;;;;;;;4927848;29;20052;-60
2023/04/16 14:22:43;;;;;;;0.55;0.28;;;;;;;;;;4928154;29;20056;-62
2023/04/16 14:25:12;;;;;;;0.28;0.20;;;;;;;;;;4928184;29;20080;-61
2023/04/16 14:27:41;;;;;;;0.20;0.20;;;;;;;;;;4914004;28;20062;-60
2023/04/16 14:30:09;;;;;;;1.05;0.20;;;;;;;;;;4923043;29;20094;-64
2023/04/16 14:32:38;;;;;;;0.10;0.10;;;;;;;;;;4938444;29;20056;-61
2023/04/16 14:35:07;;;;;;;0.75;0.30;;;;;;;;;;4935706;29;20043;-61
2023/04/16 14:37:37;;;;;;;0.20;0.20;;;;;;;;;;4937785;28;20066;-61
2023/04/16 14:40:07;;;;;;;0.30;0.28;;;;;;;;;;4923888;29;20055;-62
2023/04/16 14:42:36;;;;;;;0.20;0.20;;;;;;;;;;4925570;29;20052;-64
2023/04/16 14:45:05;;;;;;;0.15;0.15;;;;;;;;;;4921847;29;20063;-62
2023/04/16 14:47:34;;;;;;;0.20;0.20;;;;;;;;;;4931341;28;20047;-61
2023/04/16 14:50:02;;;;;;;0.85;0.35;;;;;;;;;;4923649;29;20052;-61
2023/04/16 14:52:31;;;;;;;0.20;0.20;;;;;;;;;;4926814;29;20434;-61
2023/04/16 14:55:01;;;;;;;0.10;0.10;;;;;;;;;;4929277;29;20599;-66